Time;durP1;ratioP1;P1;durP2;ratioP2;P2;SDS_P1;SDS_P2;PMS_P1;PMS_P2;Temp;Humidity;BMP_temperature;BMP_pressure;BME280_temperature;BME280_humidity;BME280_pressure;Samples;Min_cycle;Max_cycle;Signal;HPM_P1;HPM_P2
2022/05/20 00:01:49;;;;;;;6.78;3.58;;;;;;;9.60;71.41;99540.91;5001128;28;20088;-58
2022/05/20 00:04:15;;;;;;;4.43;3.92;;;;;;;9.54;70.64;99530.72;4994709;28;20030;-59
2022/05/20 00:06:40;;;;;;;7.18;3.70;;;;;;;9.63;70.59;99544.31;5027799;28;20122;-59
2022/05/20 00:09:06;;;;;;;6.68;3.72;;;;;;;9.62;71.47;99544.31;5033945;28;20491;-59
2022/05/20 00:11:32;;;;;;;6.50;3.72;;;;;;;9.50;71.26;99541.13;5027181;28;20056;-59
2022/05/20 00:13:57;;;;;;;3.88;3.45;;;;;;;9.57;72.36;99551.34;5025024;28;20026;-59
2022/05/20 00:16:23;;;;;;;8.70;3.92;;;;;;;9.57;71.18;99552.16;5010108;28;20157;-59
2022/05/20 00:18:49;;;;;;;8.07;4.30;;;;;;;9.57;71.36;99559.09;5012437;28;20113;-59
2022/05/20 00:21:15;;;;;;;4.72;4.15;;;;;;;9.52;70.80;99553.13;5012913;28;20483;-59
2022/05/20 00:23:40;;;;;;;6.63;3.42;;;;;;;9.57;71.79;99553.91;5013471;28;20061;-58
2022/05/20 00:26:06;;;;;;;5.90;4.13;;;;;;;9.56;70.27;99555.63;5013474;28;20041;-58
2022/05/20 00:28:34;;;;;;;6.10;3.95;;;;;;;9.49;70.97;99561.81;5006835;28;20464;-59
2022/05/20 00:31:04;;;;;;;4.75;3.63;;;;;;;9.22;71.09;99512.38;5012279;28;20036;-58
2022/05/20 00:33:30;;;;;;;9.27;3.92;;;;;;;9.57;71.37;99569.44;5013265;28;20029;-60
2022/05/20 00:35:55;;;;;;;9.10;3.90;;;;;;;9.43;71.65;99577.44;5012955;28;20518;-59
2022/05/20 00:38:22;;;;;;;7.38;3.97;;;;;;;9.45;71.06;99586.03;5018757;28;20034;-59
2022/05/20 00:40:50;;;;;;;6.72;3.75;;;;;;;9.08;70.35;99527.25;5030691;28;20092;-59
2022/05/20 00:43:25;;;;;;;5.93;4.10;;;;;;;9.37;70.88;99580.97;4993590;28;20034;-59
2022/05/20 00:46:05;;;;;;;4.85;3.25;;;;;;;9.38;71.69;99590.44;4993713;28;20041;-59
2022/05/20 00:48:32;;;;;;;6.32;3.75;;;;;;;9.33;70.88;99589.66;5023093;28;20041;-59
2022/05/20 00:51:20;;;;;;;6.18;3.42;;;;;;;9.35;70.27;99593.09;5032633;28;20386;-59
2022/05/20 00:53:54;;;;;;;5.90;3.45;;;;;;;9.30;71.26;99600.06;5022217;28;20044;-59
2022/05/20 00:56:24;;;;;;;6.43;3.47;;;;;;;8.88;70.43;99545.66;5007584;28;20072;-59
2022/05/20 00:58:52;;;;;;;6.75;3.40;;;;;;;8.81;69.77;99553.53;4993194;28;20373;-60
2022/05/20 01:01:18;;;;;;;5.28;3.10;;;;;;;9.18;70.40;99616.66;4996477;28;20029;-59
2022/05/20 01:03:45;;;;;;;6.15;2.80;;;;;;;8.87;71.30;99605.97;4996097;28;20113;-58
2022/05/20 01:06:11;;;;;;;3.78;2.88;;;;;;;8.90;71.34;99614.50;4992969;28;20030;-58
2022/05/20 01:08:38;;;;;;;6.22;3.00;;;;;;;8.55;70.90;99555.66;5000519;28;20026;-59
2022/05/20 01:11:04;;;;;;;5.65;3.22;;;;;;;8.93;70.79;99617.03;5014926;28;20036;-58
2022/05/20 01:13:31;;;;;;;3.75;2.92;;;;;;;8.67;71.02;99567.53;5027272;28;20092;-58
2022/05/20 01:16:02;;;;;;;3.35;2.65;;;;;;;9.02;70.23;99621.22;5012369;28;20034;-58
2022/05/20 01:18:32;;;;;;;3.03;2.63;;;;;;;9.03;68.81;99643.56;5012693;28;20044;-58
2022/05/20 01:20:58;;;;;;;4.25;2.47;;;;;;;9.05;68.30;99628.91;5022256;28;20056;-58
2022/05/20 01:23:26;;;;;;;5.85;2.67;;;;;;;8.86;67.53;99630.06;5026579;28;20044;-58
2022/05/20 01:25:55;;;;;;;2.47;2.20;;;;;;;8.98;67.36;99640.22;5012108;28;20487;-58
2022/05/20 01:28:24;;;;;;;2.83;2.50;;;;;;;8.70;67.16;99598.47;4999461;28;20037;-58
2022/05/20 01:30:53;;;;;;;3.38;2.20;;;;;;;8.70;66.12;99596.72;4992415;28;20030;-59
2022/05/20 01:33:25;;;;;;;2.70;2.35;;;;;;;8.85;66.50;99618.91;4992626;28;20034;-58
2022/05/20 01:35:50;;;;;;;;;;;;;;;9.05;67.25;99644.41;5001012;28;20053;-58
2022/05/20 01:38:16;;;;;;;2.08;1.95;;;;;;;9.02;66.07;99641.88;5007800;28;19922;-59
2022/05/20 01:41:02;;;;;;;3.75;2.10;;;;;;;9.01;65.36;99645.34;4993742;28;20042;-59
2022/05/20 01:43:28;;;;;;;4.07;1.92;;;;;;;9.00;65.94;99648.78;4999164;28;20476;-59
2022/05/20 01:46:01;;;;;;;4.25;2.40;;;;;;;8.75;64.81;99646.59;5016425;28;20048;-60
2022/05/20 01:48:35;;;;;;;4.13;2.20;;;;;;;8.72;65.30;99638.00;5018581;28;20078;-60
2022/05/20 01:51:06;;;;;;;2.13;1.92;;;;;;;8.41;64.55;99597.16;5018241;28;20045;-60
2022/05/20 01:53:37;;;;;;;3.42;2.25;;;;;;;8.54;65.78;99584.94;5016992;28;20507;-60
2022/05/20 01:56:15;;;;;;;2.20;1.95;;;;;;;8.53;65.19;99586.66;5016276;28;20186;-58
2022/05/20 01:58:58;;;;;;;2.72;1.80;;;;;;;8.78;64.56;99645.69;4999093;28;20085;-58
2022/05/20 02:01:33;;;;;;;3.42;2.80;;;;;;;8.85;64.42;99649.88;5002581;28;20538;-59
2022/05/20 02:04:29;;;;;;;5.30;2.47;;;;;;;8.87;64.23;99660.19;5000494;28;20030;-59
2022/05/20 02:06:58;;;;;;;3.55;2.22;;;;;;;8.68;64.39;99637.22;5016355;28;20042;-60
2022/05/20 02:09:42;;;;;;;3.20;1.63;;;;;;;8.61;65.11;99630.44;5018228;28;20411;-60
2022/05/20 02:12:11;;;;;;;1.55;1.45;;;;;;;8.91;64.90;99669.59;5007057;28;20483;-59
2022/05/20 02:15:02;;;;;;;1.98;1.70;;;;;;;8.90;64.04;99673.91;5012574;28;20037;-59
2022/05/20 02:17:41;;;;;;;1.80;1.60;;;;;;;8.59;64.66;99630.47;5018254;28;20044;-59
2022/05/20 02:20:20;;;;;;;3.47;1.80;;;;;;;8.79;61.97;99686.09;5019857;28;20036;-59
2022/05/20 02:22:52;;;;;;;3.28;1.70;;;;;;;8.56;62.39;99637.38;5018564;28;20076;-59
2022/05/20 02:25:21;;;;;;;1.70;1.60;;;;;;;8.92;62.70;99691.94;4999008;28;20105;-59
2022/05/20 02:27:53;;;;;;;2.53;1.50;;;;;;;8.85;62.76;99692.91;4998310;28;20022;-58
2022/05/20 02:30:23;;;;;;;3.05;1.67;;;;;;;8.91;61.59;99705.75;4998746;28;20026;-59
2022/05/20 02:32:59;;;;;;;1.45;1.35;;;;;;;9.03;59.69;99700.41;5007266;28;20092;-58
2022/05/20 02:35:25;;;;;;;2.13;1.83;;;;;;;9.07;59.51;99694.31;5012849;28;20053;-59
2022/05/20 02:37:51;;;;;;;2.47;1.55;;;;;;;9.25;59.27;99705.22;4998627;28;20038;-59
2022/05/20 02:40:19;;;;;;;2.03;1.40;;;;;;;9.40;59.64;99693.81;4997216;28;20030;-59
2022/05/20 02:42:44;;;;;;;2.67;1.45;;;;;;;9.40;58.34;99694.66;5029946;28;20065;-59
2022/05/20 02:45:12;;;;;;;2.28;1.20;;;;;;;9.35;59.20;99688.72;5015573;28;20551;-59
2022/05/20 02:47:37;;;;;;;1.15;1.05;;;;;;;9.52;58.30;99700.50;4998430;28;20499;-59
2022/05/20 02:50:09;;;;;;;3.03;1.30;;;;;;;9.50;55.92;99657.44;4998393;28;20053;-59
2022/05/20 02:52:35;;;;;;;3.50;1.20;;;;;;;9.80;57.17;99698.28;4996820;28;20049;-59
2022/05/20 02:55:02;;;;;;;1.15;1.00;;;;;;;9.83;56.10;99700.81;5013230;28;20468;-59
2022/05/20 02:57:29;;;;;;;2.17;1.15;;;;;;;9.89;57.46;99703.31;5028929;28;20025;-60
2022/05/20 03:05:23;;;;;;;1.20;1.10;;;;;;;9.69;55.92;99711.44;5010428;28;20117;-59
2022/05/20 03:07:48;;;;;;;1.55;1.30;;;;;;;9.85;56.44;99727.53;4997076;28;20396;-60
2022/05/20 03:10:14;;;;;;;1.13;1.02;;;;;;;9.72;54.51;99710.50;4997002;28;20026;-58
2022/05/20 03:12:40;;;;;;;5.90;4.80;;;;;;;9.89;55.47;99720.53;5029107;28;20037;-59
2022/05/20 03:15:08;;;;;;;1.55;1.40;;;;;;;10.01;55.51;99712.56;5014843;28;20022;-58
2022/05/20 03:17:34;;;;;;;1.75;1.33;;;;;;;9.80;54.68;99726.72;5014154;28;20104;-59
2022/05/20 03:20:00;;;;;;;1.30;1.20;;;;;;;9.69;55.91;99734.69;5015520;28;20116;-60
2022/05/20 03:22:25;;;;;;;4.88;1.55;;;;;;;9.87;57.00;99740.41;5034221;28;20056;-59
2022/05/20 03:24:51;;;;;;;2.17;1.48;;;;;;;9.99;55.11;99735.00;5001275;28;20030;-59
2022/05/20 03:27:17;;;;;;;2.88;1.17;;;;;;;10.08;54.87;99728.84;5013940;28;20428;-58
2022/05/20 03:29:46;;;;;;;3.13;1.63;;;;;;;10.00;54.58;99735.00;5014357;28;20464;-58
2022/05/20 03:32:13;;;;;;;1.88;1.23;;;;;;;9.75;54.63;99738.88;5014230;28;20088;-59
2022/05/20 03:34:40;;;;;;;1.70;1.30;;;;;;;9.57;54.01;99742.66;5013400;28;20439;-58
2022/05/20 03:37:06;;;;;;;3.15;1.30;;;;;;;9.77;53.68;99750.06;5014381;28;20034;-58
2022/05/20 03:39:32;;;;;;;1.65;1.20;;;;;;;9.85;54.58;99753.38;5027883;28;20022;-58
2022/05/20 03:41:58;;;;;;;4.03;1.45;;;;;;;9.89;54.39;99754.16;5024624;28;20041;-58
2022/05/20 03:44:24;;;;;;;1.85;1.55;;;;;;;9.95;54.34;99752.34;5009525;28;20018;-58
2022/05/20 03:46:55;;;;;;;9.10;1.75;;;;;;;9.64;54.97;99708.91;4994576;28;20515;-58
2022/05/20 03:49:23;;;;;;;1.73;1.50;;;;;;;9.76;52.63;99769.03;4994503;28;20030;-59
2022/05/20 03:51:51;;;;;;;1.60;1.50;;;;;;;9.61;52.57;99768.41;5001577;28;20029;-59
2022/05/20 03:54:20;;;;;;;3.03;1.58;;;;;;;9.50;53.71;99709.16;5013967;28;20037;-59
2022/05/20 03:56:46;;;;;;;2.88;1.90;;;;;;;9.79;52.32;99785.38;5013706;28;20061;-59
2022/05/20 03:59:12;;;;;;;1.58;1.40;;;;;;;9.84;53.02;99777.53;5013687;28;20073;-59
2022/05/20 04:01:59;;;;;;;2.95;1.63;;;;;;;10.00;52.53;99779.00;5013427;28;20025;-59
2022/05/20 04:04:31;;;;;;;1.60;1.50;;;;;;;10.16;53.03;99789.03;4992290;28;20023;-58
2022/05/20 04:06:59;;;;;;;2.10;1.58;;;;;;;9.96;53.97;99781.63;5019273;28;20030;-59
2022/05/20 04:09:24;;;;;;;4.68;1.55;;;;;;;10.07;53.84;99789.22;5015472;28;20030;-60
2022/05/20 04:11:59;;;;;;;4.85;1.75;;;;;;;10.05;53.00;99778.91;5012229;28;20519;-59
2022/05/20 04:14:28;;;;;;;4.28;1.88;;;;;;;9.95;52.16;99790.28;5013384;28;20030;-59
2022/05/20 04:16:57;;;;;;;4.22;1.50;;;;;;;10.09;54.10;99777.09;5012867;28;20030;-60
2022/05/20 04:19:29;;;;;;;1.88;1.50;;;;;;;10.30;52.92;99786.22;4993744;28;20046;-59
2022/05/20 04:21:58;;;;;;;2.15;1.40;;;;;;;10.05;51.56;99776.31;5026372;28;20118;-59
2022/05/20 04:24:24;;;;;;;1.77;1.65;;;;;;;10.31;52.03;99800.88;5008181;28;20054;-59
2022/05/20 04:26:51;;;;;;;2.28;1.50;;;;;;;10.48;51.65;99796.25;5007970;28;20067;-59
2022/05/20 04:29:17;;;;;;;3.08;1.40;;;;;;;10.55;49.89;99807.34;5013368;28;20030;-58
2022/05/20 04:31:46;;;;;;;2.97;1.52;;;;;;;10.66;50.05;99810.59;5013628;28;20105;-58
2022/05/20 04:34:12;;;;;;;1.80;1.20;;;;;;;10.90;49.03;99803.19;5013334;28;20045;-57
2022/05/20 04:36:38;;;;;;;2.50;1.50;;;;;;;11.07;48.88;99812.34;4997476;28;20101;-60
2022/05/20 04:39:04;;;;;;;1.67;1.30;;;;;;;11.00;48.16;99804.72;5002560;28;20037;-60
2022/05/20 04:47:01;;;;;;;2.45;1.50;;;;;;;11.07;46.73;99813.19;5028371;28;20026;-59
2022/05/20 04:49:29;;;;;;;2.08;1.38;;;;;;;11.07;45.64;99756.16;5009762;28;20468;-59
2022/05/20 04:51:55;;;;;;;1.38;1.23;;;;;;;12.00;46.65;99803.28;5013071;28;20030;-59
2022/05/20 04:57:07;;;;;;;2.38;1.55;;;;;;;11.99;42.07;99812.00;5003337;28;20026;-59
2022/05/20 04:59:37;;;;;;;1.42;1.30;;;;;;;12.34;42.76;99802.41;4992867;28;20037;-59
2022/05/20 05:02:03;;;;;;;2.50;1.55;;;;;;;12.34;43.37;99805.88;4999747;28;20044;-61
2022/05/20 05:04:29;;;;;;;3.47;1.77;;;;;;;12.37;43.29;99813.59;4992641;28;20037;-60
2022/05/20 05:06:55;;;;;;;3.13;1.33;;;;;;;12.85;42.85;99801.84;5008899;28;20034;-60
2022/05/20 05:09:20;;;;;;;4.18;1.38;;;;;;;12.19;40.96;99793.28;5005349;28;20125;-59
2022/05/20 05:11:46;;;;;;;2.42;1.63;;;;;;;12.80;41.22;99805.47;5018599;28;20104;-59
2022/05/20 05:14:15;;;;;;;3.50;1.55;;;;;;;12.97;42.21;99747.78;5021341;28;20049;-61
2022/05/20 05:16:42;;;;;;;3.55;1.50;;;;;;;13.45;38.88;99804.44;5011892;28;20092;-59
2022/05/20 05:19:09;;;;;;;2.75;1.38;;;;;;;14.01;37.81;99800.03;4994462;28;20443;-59
2022/05/20 05:21:34;;;;;;;1.50;1.30;;;;;;;14.01;38.59;99805.25;4992371;28;20105;-58
2022/05/20 05:24:00;;;;;;;1.52;1.17;;;;;;;14.15;36.01;99810.81;4992802;28;20425;-59
2022/05/20 05:26:31;;;;;;;3.85;1.60;;;;;;;14.37;38.65;99808.34;4992714;28;20486;-60
2022/05/20 05:28:57;;;;;;;1.40;1.30;;;;;;;13.86;37.16;99807.44;4992543;28;20022;-60
2022/05/20 05:31:23;;;;;;;2.65;1.25;;;;;;;13.17;37.83;99818.25;4990561;28;20550;-59
2022/05/20 05:33:50;;;;;;;2.90;1.35;;;;;;;13.25;38.69;99815.41;5021828;28;20383;-60
2022/05/20 05:36:17;;;;;;;1.48;1.02;;;;;;;13.28;38.41;99810.13;5018258;28;20050;-59
2022/05/20 05:38:44;;;;;;;1.65;1.20;;;;;;;13.30;37.05;99813.53;5018036;28;20045;-59
2022/05/20 05:41:10;;;;;;;1.65;1.00;;;;;;;12.15;36.34;99815.03;5031415;28;20017;-59
2022/05/20 05:43:37;;;;;;;1.45;1.27;;;;;;;12.41;36.80;99811.75;5023588;28;20434;-59
2022/05/20 05:46:04;;;;;;;1.75;1.10;;;;;;;12.24;36.28;99823.44;5028618;28;20044;-59
2022/05/20 05:48:30;;;;;;;1.45;1.35;;;;;;;12.85;39.38;99821.81;5026299;28;20033;-59
2022/05/20 05:50:56;;;;;;;2.88;1.17;;;;;;;13.16;37.04;99813.97;5029622;28;20037;-61
2022/05/20 05:53:24;;;;;;;3.17;1.33;;;;;;;13.25;37.70;99813.69;5007860;28;20543;-59
2022/05/20 05:55:56;;;;;;;1.58;1.10;;;;;;;13.83;37.35;99815.38;4996710;28;20029;-60
2022/05/20 05:58:22;;;;;;;2.63;0.90;;;;;;;13.87;37.25;99816.13;5011172;28;20502;-59
2022/05/20 06:00:47;;;;;;;2.53;1.35;;;;;;;13.74;37.67;99808.72;5007696;28;20026;-59
2022/05/20 06:03:15;;;;;;;4.53;1.58;;;;;;;13.84;39.22;99811.88;5009489;28;20018;-59
2022/05/20 06:05:42;;;;;;;1.10;1.00;;;;;;;13.70;38.95;99806.28;5011245;28;20028;-61
2022/05/20 06:08:07;;;;;;;1.75;1.20;;;;;;;13.44;38.27;99820.97;5010414;28;20029;-60
2022/05/20 06:10:34;;;;;;;1.30;1.20;;;;;;;13.52;38.59;99818.94;5008646;28;20029;-59
2022/05/20 06:12:59;;;;;;;2.53;1.17;;;;;;;13.51;38.06;99817.28;5011345;28;20092;-59
2022/05/20 06:15:26;;;;;;;1.20;1.10;;;;;;;13.50;37.74;99825.97;5008492;28;20471;-58
2022/05/20 06:17:52;;;;;;;2.17;1.40;;;;;;;13.62;38.25;99820.38;5017240;28;20029;-60
2022/05/20 06:20:20;;;;;;;2.00;1.27;;;;;;;13.38;36.71;99823.72;5030150;28;20026;-58
2022/05/20 06:22:46;;;;;;;2.78;1.75;;;;;;;13.47;39.08;99836.47;5011718;28;20069;-58
2022/05/20 06:25:13;;;;;;;2.72;1.48;;;;;;;13.71;38.88;99829.66;5029975;28;20479;-61
2022/05/20 06:27:39;;;;;;;3.25;1.38;;;;;;;13.76;37.83;99824.28;5024281;28;20026;-60
2022/05/20 06:30:08;;;;;;;3.05;1.20;;;;;;;13.66;37.46;99843.69;5013902;28;20036;-60
2022/05/20 06:32:34;;;;;;;1.52;1.30;;;;;;;13.61;35.06;99833.41;5019515;28;20080;-60
2022/05/20 06:40:47;;;;;;;1.73;1.40;;;;;;;13.92;33.65;99837.66;4995922;28;20100;-60
2022/05/20 06:43:14;;;;;;;13.32;1.88;;;;;;;13.97;36.76;99841.81;5031012;28;20029;-59
2022/05/20 06:45:40;;;;;;;4.18;1.40;;;;;;;13.83;35.75;99828.38;5016944;28;20022;-59
2022/05/20 06:48:06;;;;;;;2.03;1.25;;;;;;;13.84;35.10;99832.69;5015616;28;20028;-59
2022/05/20 06:50:35;;;;;;;1.85;1.50;;;;;;;13.78;35.42;99822.47;5015489;28;20030;-60
2022/05/20 06:53:00;;;;;;;1.30;1.20;;;;;;;13.55;34.55;99831.88;5014836;28;20029;-60
2022/05/20 06:55:26;;;;;;;1.80;1.23;;;;;;;13.53;34.22;99827.63;5027986;28;20041;-60
2022/05/20 06:57:51;;;;;;;2.85;1.75;;;;;;;13.47;35.54;99839.06;5014248;28;20053;-60
2022/05/20 07:00:17;;;;;;;1.65;1.30;;;;;;;13.69;36.39;99841.00;5029980;28;20017;-60
2022/05/20 07:02:44;;;;;;;3.08;1.52;;;;;;;13.62;35.94;99832.53;5011974;28;20029;-61
2022/05/20 07:05:10;;;;;;;8.02;2.00;;;;;;;13.72;36.38;99833.94;5013026;28;20084;-61
2022/05/20 07:07:37;;;;;;;2.38;1.38;;;;;;;13.68;36.01;99826.28;5013172;28;20103;-59
2022/05/20 07:10:04;;;;;;;1.40;1.30;;;;;;;13.54;35.44;99837.97;4998024;28;20030;-60
2022/05/20 07:12:29;;;;;;;2.05;1.40;;;;;;;13.62;35.47;99835.13;5001379;28;20026;-59
2022/05/20 07:14:55;;;;;;;4.72;1.38;;;;;;;13.78;33.70;99845.91;5011182;28;20372;-59
2022/05/20 07:17:22;;;;;;;2.58;1.50;;;;;;;13.83;35.26;99843.16;5011815;28;20472;-58
2022/05/20 07:19:50;;;;;;;2.63;1.33;;;;;;;13.61;35.07;99842.09;5011388;28;20144;-57
2022/05/20 07:22:16;;;;;;;2.00;1.52;;;;;;;13.42;37.24;99827.94;5012007;28;20044;-58
2022/05/20 07:24:43;;;;;;;3.28;1.05;;;;;;;12.76;33.62;99835.91;5012409;28;20030;-58
2022/05/20 07:27:09;;;;;;;3.25;1.30;;;;;;;13.45;35.94;99846.94;5011977;28;20030;-57
2022/05/20 07:29:35;;;;;;;2.78;1.40;;;;;;;13.61;36.99;99836.88;5012480;28;20034;-57
2022/05/20 07:32:01;;;;;;;2.13;1.08;;;;;;;13.63;34.55;99844.66;5013560;28;20018;-58
2022/05/20 07:34:27;;;;;;;3.28;1.50;;;;;;;13.49;34.78;99846.81;5011879;28;20088;-57
2022/05/20 07:36:52;;;;;;;1.30;1.08;;;;;;;13.59;36.71;99849.06;5014813;28;20133;-59
2022/05/20 07:39:18;;;;;;;1.23;1.10;;;;;;;13.63;35.21;99850.69;5011669;28;20068;-59
2022/05/20 07:41:43;;;;;;;1.20;1.10;;;;;;;13.74;34.38;99847.75;5011514;28;20026;-59
2022/05/20 07:44:09;;;;;;;2.97;1.38;;;;;;;13.57;32.65;99858.69;5012619;28;20029;-61
2022/05/20 07:46:34;;;;;;;2.00;1.10;;;;;;;13.47;33.99;99849.47;4994430;28;20029;-61
2022/05/20 07:49:00;;;;;;;1.67;0.90;;;;;;;13.31;35.09;99846.47;4994349;28;20473;-60
2022/05/20 07:51:29;;;;;;;1.67;0.70;;;;;;;13.20;33.89;99809.53;5013455;28;20038;-61
2022/05/20 07:54:05;;;;;;;1.85;0.90;;;;;;;12.94;34.14;99799.00;5028569;28;20022;-62
2022/05/20 07:56:37;;;;;;;4.40;1.10;;;;;;;13.04;34.47;99803.91;5013632;28;20037;-61
2022/05/20 07:59:16;;;;;;;2.20;1.05;;;;;;;13.03;35.57;99807.44;5013633;28;20049;-60
2022/05/20 08:01:48;;;;;;;2.58;1.10;;;;;;;13.25;34.14;99844.91;5013023;28;20109;-60
2022/05/20 08:07:13;;;;;;;2.50;1.20;;;;;;;13.34;33.04;99833.38;4999585;28;20034;-62
2022/05/20 08:09:39;;;;;;;2.97;0.90;;;;;;;13.48;34.19;99847.72;4999184;28;20022;-62
2022/05/20 08:12:05;;;;;;;1.48;1.20;;;;;;;13.36;32.82;99852.41;5005445;28;20046;-62
2022/05/20 08:14:31;;;;;;;6.38;1.33;;;;;;;13.44;34.21;99849.59;5007758;28;20022;-63
2022/05/20 08:17:00;;;;;;;2.53;1.10;;;;;;;13.19;32.47;99865.03;5013171;28;20048;-64
2022/05/20 08:19:27;;;;;;;6.07;1.58;;;;;;;13.41;33.71;99860.06;5019651;28;20052;-61
2022/05/20 08:21:52;;;;;;;7.65;2.65;;;;;;;13.69;34.23;99851.41;5009597;28;20136;-62
2022/05/20 08:24:19;;;;;;;4.07;1.10;;;;;;;13.86;33.05;99849.09;5003988;28;20027;-61
2022/05/20 08:26:44;;;;;;;2.80;1.15;;;;;;;13.86;32.21;99841.28;5003820;28;20035;-61
2022/05/20 08:29:12;;;;;;;4.25;1.05;;;;;;;13.91;32.07;99839.41;5012649;28;20156;-61
2022/05/20 08:31:39;;;;;;;2.92;1.00;;;;;;;13.92;33.51;99846.31;4994060;28;20045;-60
2022/05/20 08:34:05;;;;;;;0.70;0.70;;;;;;;14.06;34.27;99832.00;5025519;28;20025;-62
2022/05/20 08:36:31;;;;;;;2.70;1.10;;;;;;;14.03;32.27;99848.56;5013566;28;20054;-62
2022/05/20 08:38:57;;;;;;;1.88;1.00;;;;;;;13.86;31.80;99849.09;5012120;28;20030;-62
2022/05/20 08:41:32;;;;;;;1.95;0.80;;;;;;;13.40;31.25;99801.97;5013132;28;20029;-62
2022/05/20 08:43:59;;;;;;;5.13;1.30;;;;;;;13.73;32.86;99847.81;5008016;28;20491;-61
2022/05/20 08:46:24;;;;;;;1.83;1.00;;;;;;;13.96;32.19;99837.47;5012657;28;20034;-60
2022/05/20 08:48:54;;;;;;;1.85;1.08;;;;;;;13.37;30.75;99842.88;5011367;28;20068;-60
2022/05/20 08:51:21;;;;;;;1.20;1.10;;;;;;;13.06;32.34;99833.34;5011892;28;20479;-60
2022/05/20 08:53:48;;;;;;;3.45;1.05;;;;;;;13.48;33.31;99835.56;5010201;28;20076;-60
2022/05/20 08:56:20;;;;;;;0.80;0.80;;;;;;;13.74;31.81;99832.16;5011980;28;20057;-61
2022/05/20 08:58:52;;;;;;;2.42;1.20;;;;;;;14.04;33.55;99823.34;5010064;28;20459;-60
2022/05/20 09:01:39;;;;;;;5.95;1.08;;;;;;;13.97;31.04;99834.00;5012335;28;20034;-62
2022/05/20 09:04:06;;;;;;;1.10;0.95;;;;;;;14.28;33.18;99819.06;5012439;28;20112;-62
2022/05/20 09:06:56;;;;;;;2.20;1.23;;;;;;;13.98;31.46;99803.63;5007241;28;20104;-64
2022/05/20 09:09:22;;;;;;;1.70;1.10;;;;;;;14.47;32.51;99833.16;5009811;28;20400;-63
2022/05/20 09:11:55;;;;;;;3.28;0.90;;;;;;;14.38;32.51;99817.88;5014147;28;20038;-63
2022/05/20 09:17:23;;;;;;;0.73;0.73;;;;;;;14.33;31.28;99778.94;5007620;28;20036;-63
2022/05/20 09:20:01;;;;;;;2.50;1.20;;;;;;;14.31;30.35;99780.75;5009525;28;20482;-64
2022/05/20 09:22:30;;;;;;;1.00;0.80;;;;;;;14.62;33.12;99836.16;5012505;28;20487;-64
2022/05/20 09:24:56;;;;;;;1.13;1.00;;;;;;;14.60;31.80;99817.94;5012340;28;20034;-62
2022/05/20 09:27:33;;;;;;;1.95;1.15;;;;;;;14.37;31.54;99764.03;5002661;28;20307;-64
2022/05/20 09:30:02;;;;;;;3.50;1.15;;;;;;;14.28;33.13;99767.84;4993229;28;20370;-64
2022/05/20 09:32:33;;;;;;;2.47;1.00;;;;;;;14.68;32.60;99815.09;4993177;28;20369;-63
2022/05/20 09:35:04;;;;;;;1.17;1.00;;;;;;;14.57;30.90;99806.78;5012012;28;20395;-63
2022/05/20 09:37:33;;;;;;;1.05;0.95;;;;;;;14.43;33.11;99761.22;5011742;28;20034;-63
2022/05/20 09:40:17;;;;;;;2.22;0.98;;;;;;;14.55;30.55;99816.41;5011777;28;20029;-63
2022/05/20 09:42:57;;;;;;;2.15;0.98;;;;;;;14.46;32.65;99778.50;5000094;28;20038;-63
2022/05/20 09:45:23;;;;;;;3.67;0.90;;;;;;;14.53;30.31;99808.63;5012330;28;20033;-63
2022/05/20 09:47:56;;;;;;;2.00;0.80;;;;;;;14.38;30.52;99781.38;5020129;28;20018;-63
2022/05/20 09:50:24;;;;;;;3.72;0.90;;;;;;;14.51;30.59;99815.69;5012346;28;20145;-63
2022/05/20 09:52:55;;;;;;;0.90;0.90;;;;;;;13.88;30.51;99752.72;5012337;28;20040;-62
2022/05/20 09:55:26;;;;;;;2.27;1.10;;;;;;;14.49;31.75;99812.25;5010970;28;20030;-62
2022/05/20 09:57:55;;;;;;;1.77;0.95;;;;;;;13.91;32.07;99758.69;5010145;28;20045;-62
2022/05/20 10:00:27;;;;;;;1.27;1.05;;;;;;;13.59;31.66;99791.81;5010049;28;20100;-62
2022/05/20 10:03:14;;;;;;;1.95;0.93;;;;;;;13.10;32.14;99744.78;5012959;28;20048;-62
2022/05/20 10:06:03;;;;;;;1.52;1.05;;;;;;;13.50;32.13;99788.69;5013895;28;20030;-63
2022/05/20 10:08:32;;;;;;;1.45;1.05;;;;;;;13.54;32.30;99792.88;5014247;28;20086;-62
2022/05/20 10:11:19;;;;;;;4.32;1.10;;;;;;;13.73;32.13;99806.16;5013525;28;20034;-62
2022/05/20 10:13:56;;;;;;;1.20;1.10;;;;;;;13.58;33.31;99752.84;5015222;28;20169;-62
2022/05/20 10:16:36;;;;;;;1.20;1.10;;;;;;;13.57;32.23;99791.03;5015074;28;20048;-63
2022/05/20 10:19:08;;;;;;;4.03;1.13;;;;;;;13.83;35.04;99788.50;5015222;28;20483;-62
2022/05/20 10:22:02;;;;;;;2.90;1.38;;;;;;;13.69;32.40;99795.00;5015067;28;20026;-62
2022/05/20 10:24:51;;;;;;;1.42;1.10;;;;;;;13.36;31.40;99796.94;5011080;28;20392;-62
2022/05/20 10:27:19;;;;;;;0.93;0.93;;;;;;;13.53;31.12;99794.63;5010820;28;20022;-63
2022/05/20 10:32:57;;;;;;;4.35;1.45;;;;;;;13.78;31.59;99733.97;5017969;28;20054;-62
2022/05/20 10:35:27;;;;;;;0.82;0.82;;;;;;;14.03;33.94;99759.19;5014715;28;20408;-62
2022/05/20 10:37:55;;;;;;;0.90;0.90;;;;;;;14.07;33.42;99769.44;5013795;28;20409;-62
2022/05/20 10:40:46;;;;;;;2.05;1.10;;;;;;;14.33;32.49;99755.47;5014780;28;20025;-61
2022/05/20 10:49:49;;;;;;;3.47;1.40;;;;;;;14.19;31.05;99760.31;5015140;28;20407;-62
2022/05/20 10:52:26;;;;;;;1.45;1.08;;;;;;;14.13;29.89;99769.22;5014630;28;20030;-63
2022/05/20 10:55:19;;;;;;;0.90;0.90;;;;;;;14.13;31.48;99768.38;5013854;28;20069;-62
2022/05/20 10:58:09;;;;;;;4.88;1.52;;;;;;;13.64;29.23;99757.88;5013045;28;20017;-63
2022/05/20 11:00:50;;;;;;;2.92;1.15;;;;;;;13.49;30.25;99759.22;5016273;28;20037;-63
2022/05/20 11:03:27;;;;;;;4.63;1.25;;;;;;;13.93;31.37;99754.28;5010783;28;20033;-63
2022/05/20 11:06:12;;;;;;;3.10;1.20;;;;;;;13.96;31.18;99715.09;5010008;28;20034;-62
2022/05/20 11:08:40;;;;;;;4.15;1.40;;;;;;;14.33;31.36;99750.25;5012266;28;20031;-63
2022/05/20 11:11:12;;;;;;;10.80;1.90;;;;;;;14.26;31.08;99724.50;5027729;28;20034;-63
2022/05/20 11:13:46;;;;;;;14.00;2.67;;;;;;;14.39;29.88;99756.19;5011672;28;20037;-63
2022/05/20 11:16:31;;;;;;;1.50;1.40;;;;;;;14.50;29.59;99752.25;5011631;28;20395;-62
2022/05/20 11:19:03;;;;;;;4.43;1.27;;;;;;;14.61;31.30;99738.00;4994619;28;20030;-62
2022/05/20 11:21:34;;;;;;;4.53;1.20;;;;;;;14.64;30.05;99737.91;5013245;28;20026;-63
2022/05/20 11:24:26;;;;;;;3.35;1.13;;;;;;;14.80;29.99;99731.19;5012576;28;20044;-62
2022/05/20 11:27:13;;;;;;;2.90;1.20;;;;;;;14.80;30.55;99739.03;5011496;28;20105;-62
2022/05/20 11:29:46;;;;;;;1.40;0.90;;;;;;;14.85;30.32;99744.09;5010586;28;20039;-62
2022/05/20 11:32:32;;;;;;;1.15;1.02;;;;;;;14.82;31.51;99736.34;5013284;28;20037;-62
2022/05/20 11:35:15;;;;;;;1.40;1.02;;;;;;;14.92;30.97;99736.84;5011660;28;20061;-62
2022/05/20 11:38:04;;;;;;;1.30;1.20;;;;;;;14.96;29.08;99728.00;5013791;28;20511;-62
2022/05/20 11:40:35;;;;;;;0.85;0.85;;;;;;;15.01;32.74;99726.91;5014688;28;20539;-62
2022/05/20 11:43:48;;;;;;;2.63;1.00;;;;;;;15.12;31.88;99716.06;5010432;28;20369;-62
2022/05/20 11:46:19;;;;;;;2.85;1.10;;;;;;;15.09;30.78;99720.56;5000685;28;20053;-63
2022/05/20 11:48:59;;;;;;;1.23;1.13;;;;;;;14.93;31.18;99669.00;5006441;28;20499;-63
2022/05/20 11:51:33;;;;;;;2.28;1.05;;;;;;;15.16;31.38;99712.44;5012397;28;20137;-62
2022/05/20 11:54:11;;;;;;;3.28;1.20;;;;;;;14.24;29.78;99687.25;5012366;28;20494;-63
2022/05/20 11:56:42;;;;;;;2.45;1.17;;;;;;;14.36;31.43;99718.03;5010563;28;20479;-62
2022/05/20 11:59:19;;;;;;;1.63;1.20;;;;;;;14.24;29.89;99711.53;5010980;28;20487;-62
2022/05/20 12:01:50;;;;;;;3.13;1.15;;;;;;;14.14;30.95;99652.88;5011994;28;20026;-62
2022/05/20 12:04:18;;;;;;;3.28;1.00;;;;;;;14.15;30.79;99654.56;5011812;28;20036;-63
2022/05/20 12:07:05;;;;;;;2.17;1.20;;;;;;;14.50;33.09;99699.31;5025112;28;20021;-63
2022/05/20 12:09:33;;;;;;;3.25;1.48;;;;;;;14.32;29.92;99704.28;5013807;28;20030;-63
2022/05/20 12:12:20;;;;;;;2.17;1.55;;;;;;;14.47;30.76;99692.44;5015089;28;20033;-63
2022/05/20 12:15:11;;;;;;;2.17;1.13;;;;;;;14.58;29.61;99684.22;5011363;28;20061;-62
2022/05/20 12:17:42;;;;;;;1.30;1.20;;;;;;;14.55;32.17;99660.03;5012338;28;20096;-63
2022/05/20 12:26:18;;;;;;;1.23;1.10;;;;;;;14.82;29.81;99681.59;5010321;28;20034;-62
2022/05/20 12:28:44;;;;;;;1.80;1.17;;;;;;;14.63;28.81;99684.09;5008925;28;20138;-63
2022/05/20 12:31:14;;;;;;;4.22;1.10;;;;;;;14.51;29.23;99677.56;5011158;28;20026;-63
2022/05/20 12:34:05;;;;;;;1.15;1.00;;;;;;;14.53;30.46;99682.72;5006028;28;20112;-65